Baltimore — WD19338 — position and weather

sailwx.info

Track history (hours):
 
Tides and Currents Weather Stations Pressure Air Temp Water Temp Dewpoint Dewpoint Depression Visibility Wind Speed Wind Dir Waves Ship Positions

Baltimore

Last reported at 2017-Nov-18 19:30 UTC. Time now 2017-Nov-18 19:34 UTC.
Position N 39°54' W 075°12'.

Length 33 m.

Type: Tug. MMSI: 338602000.

Date/timePositionNaut miles runAvg speedWind from/ knotsBaromVisibWave heightAir tempDewpointWater temp
2017-Nov-18 19:30N 39°54' W 075°12'0 0.0
2017-Nov-18 19:00N 39°54' W 075°12'0 0.0
2017-Nov-18 18:31N 39°54' W 075°12'0 0.0
2017-Nov-18 18:00N 39°54' W 075°12'0 0.0
2017-Nov-18 17:30N 39°54' W 075°12'0 0.1
2017-Nov-18 17:00N 39°54' W 075°12'0 0.1
2017-Nov-18 16:30N 39°54' W 075°12'0 0.1
2017-Nov-18 16:01N 39°54' W 075°12'0 0.0
2017-Nov-18 15:31N 39°54' W 075°12'0 0.0
2017-Nov-18 15:00N 39°54' W 075°12'0 0.0
2017-Nov-18 14:30N 39°54' W 075°12'0 0.0
2017-Nov-18 14:00N 39°54' W 075°12'0 0.0
2017-Nov-18 13:30N 39°54' W 075°12'0 0.0
2017-Nov-18 13:00N 39°54' W 075°12'0 0.0
2017-Nov-18 12:30N 39°54' W 075°12'0 0.0
2017-Nov-18 12:00N 39°54' W 075°12'0 0.0
2017-Nov-18 11:30N 39°54' W 075°12'0 0.0
2017-Nov-18 11:00N 39°54' W 075°12'0 0.0
2017-Nov-18 10:30N 39°54' W 075°12'0 0.0
2017-Nov-18 10:00N 39°54' W 075°12'0 0.0
2017-Nov-18 09:30N 39°54' W 075°12'0 0.0
2017-Nov-18 09:00N 39°54' W 075°12'0 0.0
2017-Nov-18 08:30N 39°54' W 075°12'0 0.0
2017-Nov-18 08:00N 39°54' W 075°12'0 0.0
2017-Nov-18 07:30N 39°54' W 075°12'0 0.0
2017-Nov-18 07:00N 39°54' W 075°12'0 0.0
2017-Nov-18 06:30N 39°54' W 075°12'0 0.0
2017-Nov-18 06:00N 39°54' W 075°12'0 0.0
2017-Nov-18 05:30N 39°54' W 075°12'0 0.0
2017-Nov-18 05:00N 39°54' W 075°12'0 0.0
2017-Nov-18 04:30N 39°54' W 075°12'0 0.0
2017-Nov-18 04:00N 39°54' W 075°12'0 0.0
2017-Nov-18 03:30N 39°54' W 075°12'0 0.0
2017-Nov-18 03:01N 39°54' W 075°12'0 0.0
2017-Nov-18 02:30N 39°54' W 075°12'0 0.0
2017-Nov-18 02:00N 39°54' W 075°12'0 0.0
2017-Nov-18 01:31N 39°54' W 075°12'0 0.0
2017-Nov-18 01:00N 39°54' W 075°12'0 0.0
2017-Nov-18 00:30N 39°54' W 075°12'0 0.0
2017-Nov-18 00:00N 39°54' W 075°12'0 0.0
2017-Nov-17 23:30N 39°54' W 075°12'1 1.3
2017-Nov-17 23:00N 39°53' W 075°12'0 0.0
2017-Nov-17 22:30N 39°53' W 075°12'0 0.0
2017-Nov-17 22:00N 39°53' W 075°12'0 0.0
2017-Nov-17 21:30N 39°53' W 075°12'1 1.9
2017-Nov-17 21:01N 39°53' W 075°12'3 6.9
2017-Nov-17 20:30N 39°51' W 075°16'0 0.2
2017-Nov-17 20:01N 39°51' W 075°16'2 4.7
2017-Nov-17 19:31N 39°52' W 075°13'0 0.2
2017-Nov-17 19:01N 39°52' W 075°13'0 0.0
2017-Nov-17 18:30N 39°52' W 075°13'0 0.1
2017-Nov-17 18:01N 39°52' W 075°13'0 0.1
2017-Nov-17 17:30N 39°52' W 075°13'1 1.1
2017-Nov-17 17:00N 39°52' W 075°14'3 5.9
2017-Nov-17 16:30N 39°51' W 075°18'4 7.3
2017-Nov-17 16:00N 39°50' W 075°22'4 8.9
2017-Nov-17 15:30N 39°47' W 075°27'4 8.9
2017-Nov-17 15:00N 39°44' W 075°30'2 4.3
2017-Nov-17 14:30N 39°42' W 075°31'3 6.5
2017-Nov-17 14:00N 39°39' W 075°33'4 7.4
2017-Nov-17 13:30N 39°35' W 075°34'4 8.6
2017-Nov-17 13:00N 39°31' W 075°33'4 8.2
2017-Nov-17 12:30N 39°27' W 075°33'4 8.4
2017-Nov-17 12:00N 39°24' W 075°29'3 6.6
2017-Nov-17 11:30N 39°21' W 075°26'3 6.5
2017-Nov-17 11:00N 39°19' W 075°24'4 7.7
2017-Nov-17 10:30N 39°16' W 075°20'4 7.3
2017-Nov-17 10:00N 39°13' W 075°17'4 7.7
2017-Nov-17 09:30N 39°10' W 075°15'4 7.3
2017-Nov-17 09:00N 39°07' W 075°12'3 6.4
2017-Nov-17 08:30N 39°04' W 075°10'4 6.5
2017-Nov-17 07:50N 38°60' W 075°09'52 5.5
2017-Nov-16 22:21N 39°27' W 074°11'3 7.9
2017-Nov-16 21:59N 39°29' W 074°09'4 7.9
2017-Nov-16 21:30N 39°32' W 074°06'4 8.1
2017-Nov-16 21:00N 39°36' W 074°04'4 8.1
2017-Nov-16 20:29N 39°40' W 074°02'4 8.1
2017-Nov-16 20:00N 39°43' W 073°60'4 8.1
2017-Nov-16 19:30N 39°47' W 073°58'4 8.3
2017-Nov-16 19:00N 39°51' W 073°58'32 8.5
2017-Nov-16 15:17N 40°23' W 073°54'4 8.2
2017-Nov-16 14:50N 40°27' W 073°54'7 8.7
2017-Nov-16 14:00N 40°32' W 074°01'4 8.7
2017-Nov-16 13:30N 40°36' W 074°03'2 4.4
2017-Nov-16 13:00N 40°38' W 074°03'2 3.3
2017-Nov-16 12:30N 40°40' W 074°03'3 6.0
2017-Nov-16 12:00N 40°42' W 074°00'2 4.5
2017-Nov-16 11:30N 40°43' W 073°58'3 5.1
2017-Nov-16 11:00N 40°46' W 073°57'2 3.2
2017-Nov-16 10:28N 40°47' W 073°56'2 3.7
2017-Nov-16 10:00N 40°48' W 073°54'2 4.7
2017-Nov-16 09:29N 40°48' W 073°51'3 5.1
2017-Nov-16 08:59N 40°48' W 073°48'6 0.3
2017-Nov-15 12:09N 40°53' W 073°43'1 7.0
2017-Nov-15 11:57N 40°52' W 073°44'3 7.0
2017-Nov-15 11:29N 40°50' W 073°47'3 5.3
2017-Nov-15 11:00N 40°48' W 073°50'4 7.4
2017-Nov-15 10:30N 40°48' W 073°54'0 0.1
2017-Nov-15 09:13N 40°48' W 073°54'0 0.0
2017-Nov-15 08:38N 40°48' W 073°54'0 0.0
2017-Nov-15 08:30N 40°48' W 073°54'0 0.0
2017-Nov-15 07:58N 40°48' W 073°54'0 0.0
2017-Nov-15 07:29N 40°48' W 073°54'0 0.0
2017-Nov-15 06:59N 40°48' W 073°54'0 0.0
2017-Nov-15 06:31N 40°48' W 073°54'0 0.0
2017-Nov-15 06:00N 40°48' W 073°54'0 0.0
2017-Nov-15 05:30N 40°48' W 073°54'0 0.0
2017-Nov-15 05:01N 40°48' W 073°54'0 0.0
2017-Nov-15 04:30N 40°48' W 073°54'0 0.0
2017-Nov-15 04:00N 40°48' W 073°54'0 0.0
2017-Nov-15 03:29N 40°48' W 073°54'0 0.0
2017-Nov-15 02:59N 40°48' W 073°54'0 0.0
2017-Nov-15 02:30N 40°48' W 073°54'0 0.0
2017-Nov-15 02:00N 40°48' W 073°54'0 0.0
2017-Nov-15 00:59N 40°48' W 073°54'0 0.2
2017-Nov-15 00:31N 40°48' W 073°54'2 4.6
2017-Nov-14 23:59N 40°46' W 073°57'2 4.7
2017-Nov-14 23:30N 40°44' W 073°58'2 4.0
2017-Nov-14 23:01N 40°42' W 073°59'3 5.0
2017-Nov-14 22:30N 40°41' W 074°01'2 4.9
2017-Nov-14 22:00N 40°38' W 074°02'2 4.7
2017-Nov-14 21:30N 40°36' W 074°02'2 3.8
2017-Nov-14 21:00N 40°34' W 074°02'2 3.7
2017-Nov-14 20:30N 40°32' W 074°01'3 5.6
2017-Nov-14 20:01N 40°31' W 073°59'3 6.5
2017-Nov-14 19:30N 40°29' W 073°55'43 5.1
2017-Nov-14 11:03N 39°46' W 073°58'2 5.0
2017-Nov-14 10:34N 39°44' W 073°59'0 5.0
2017-Nov-14 10:30N 39°43' W 073°60'3 5.0
2017-Nov-14 10:00N 39°41' W 074°01'2 5.0
2017-Nov-14 09:31N 39°39' W 074°02'3 5.0
2017-Nov-14 09:00N 39°36' W 074°03'2 5.1
2017-Nov-14 08:31N 39°34' W 074°05'7 5.1
2017-Nov-14 07:08N 39°28' W 074°09'25 5.0
2017-Nov-14 02:05N 39°08' W 074°29'7 5.1
2017-Nov-14 00:42N 39°03' W 074°35'58 2.6
2017-Nov-13 02:00N 39°54' W 075°12'0 0.0
2017-Nov-13 01:31N 39°54' W 075°12'0 0.0
2017-Nov-13 01:01N 39°54' W 075°12'0 0.0
2017-Nov-13 00:30N 39°54' W 075°12'0 0.0
2017-Nov-13 00:00N 39°54' W 075°12'0 0.0
2017-Nov-12 23:31N 39°54' W 075°12'0 0.0
2017-Nov-12 23:01N 39°54' W 075°12'0 0.0
2017-Nov-12 22:30N 39°54' W 075°12'0 0.0
2017-Nov-12 22:01N 39°54' W 075°12'0 0.0
2017-Nov-12 21:31N 39°54' W 075°12'0 0.0
2017-Nov-12 21:01N 39°54' W 075°12'0 0.0
2017-Nov-12 20:31N 39°54' W 075°12'0 0.0
2017-Nov-12 20:01N 39°54' W 075°12'0 0.0
2017-Nov-12 19:30N 39°54' W 075°12'0 0.0
2017-Nov-12 19:00N 39°54' W 075°12'0 0.0
2017-Nov-12 18:31N 39°54' W 075°12'0 0.0
2017-Nov-12 18:01N 39°54' W 075°12'0 0.0
2017-Nov-12 17:31N 39°54' W 075°12'0 0.0
2017-Nov-12 17:01N 39°54' W 075°12'0 0.0
2017-Nov-12 16:30N 39°54' W 075°12'0 0.0
2017-Nov-12 16:01N 39°54' W 075°12'0 0.0
2017-Nov-12 15:31N 39°54' W 075°12'0 0.0
2017-Nov-12 15:00N 39°54' W 075°12'0 0.1
2017-Nov-12 14:30N 39°54' W 075°12'0 0.0
2017-Nov-12 14:01N 39°54' W 075°12'0 0.0
2017-Nov-12 13:30N 39°54' W 075°12'0 0.0
2017-Nov-12 13:01N 39°54' W 075°12'0 0.0
2017-Nov-12 12:31N 39°54' W 075°12'0 0.0
2017-Nov-12 12:01N 39°54' W 075°12'0 0.0
2017-Nov-12 11:30N 39°54' W 075°12'0 0.0
2017-Nov-12 11:00N 39°54' W 075°12'0 0.0
2017-Nov-12 10:31N 39°54' W 075°12'0 0.0
2017-Nov-12 10:00N 39°54' W 075°12'0 0.0
2017-Nov-12 09:30N 39°54' W 075°12'0 0.0
2017-Nov-12 09:01N 39°54' W 075°12'0 0.0
2017-Nov-12 08:31N 39°54' W 075°12'0 0.0
2017-Nov-12 08:01N 39°54' W 075°12'0 0.0
2017-Nov-12 07:31N 39°54' W 075°12'0 0.0
2017-Nov-12 07:01N 39°54' W 075°12'0 0.0
2017-Nov-12 06:30N 39°54' W 075°12'0 0.0
2017-Nov-12 06:00N 39°54' W 075°12'0 0.0
2017-Nov-12 05:31N 39°54' W 075°12'0 0.0
2017-Nov-12 05:01N 39°54' W 075°12'0 0.0
2017-Nov-12 04:30N 39°54' W 075°12'0 0.0
2017-Nov-12 04:01N 39°54' W 075°12'0 0.0
2017-Nov-12 03:31N 39°54' W 075°12'0 0.0
2017-Nov-12 03:00N 39°54' W 075°12'0 0.0
2017-Nov-12 02:30N 39°54' W 075°12'0 0.0
2017-Nov-12 02:01N 39°54' W 075°12'0 0.0
2017-Nov-12 01:31N 39°54' W 075°12'0 0.0
2017-Nov-12 01:01N 39°54' W 075°12'0 0.0
2017-Nov-12 00:30N 39°54' W 075°12'0 0.0
2017-Nov-12 00:01N 39°54' W 075°12'0 0.0
2017-Nov-11 23:31N 39°54' W 075°12'0 0.0
2017-Nov-11 23:01N 39°54' W 075°12'0 0.0
2017-Nov-11 22:30N 39°54' W 075°12'0 0.0
2017-Nov-11 22:00N 39°54' W 075°12'0 0.0
2017-Nov-11 21:31N 39°54' W 075°12'0 0.0
2017-Nov-11 21:01N 39°54' W 075°12'0 0.0
2017-Nov-11 20:30N 39°54' W 075°12'0 0.0
2017-Nov-11 20:00N 39°54' W 075°12'0 0.0
2017-Nov-11 19:30N 39°54' W 075°12'0 0.0
2017-Nov-11 19:01N 39°54' W 075°12'0 0.0
2017-Nov-11 18:30N 39°54' W 075°12'0 0.0
2017-Nov-11 18:00N 39°54' W 075°12'0 0.0
2017-Nov-11 17:31N 39°54' W 075°12'0 0.0
2017-Nov-11 17:00N 39°54' W 075°12'0 0.0
2017-Nov-11 16:30N 39°54' W 075°12'0 0.0
2017-Nov-11 16:00N 39°54' W 075°12'0 0.0
2017-Nov-11 15:31N 39°54' W 075°12'0 0.0
2017-Nov-11 15:00N 39°54' W 075°12'0 0.0
2017-Nov-11 14:30N 39°54' W 075°12'0 0.0
2017-Nov-11 14:01N 39°54' W 075°12'0 0.0
2017-Nov-11 13:30N 39°54' W 075°12'0 0.0
2017-Nov-11 13:00N 39°54' W 075°12'0 0.0
2017-Nov-11 12:31N 39°54' W 075°12'0 0.0
2017-Nov-11 12:00N 39°54' W 075°12'0 0.0
2017-Nov-11 11:30N 39°54' W 075°12'0 0.0
2017-Nov-11 11:00N 39°54' W 075°12'0 0.0
2017-Nov-11 10:30N 39°54' W 075°12'0 0.0
2017-Nov-11 10:01N 39°54' W 075°12'0 0.0
2017-Nov-11 09:30N 39°54' W 075°12'0 0.0
2017-Nov-11 09:01N 39°54' W 075°12'0 0.0
2017-Nov-11 08:30N 39°54' W 075°12'0 0.0
2017-Nov-11 08:00N 39°54' W 075°12'0 0.0
2017-Nov-11 07:31N 39°54' W 075°12'0 0.0
2017-Nov-11 07:01N 39°54' W 075°12'0 0.0
2017-Nov-11 06:31N 39°54' W 075°12'0 0.0
2017-Nov-11 06:00N 39°54' W 075°12'0 0.0
2017-Nov-11 05:30N 39°54' W 075°12'0 0.0
2017-Nov-11 05:00N 39°54' W 075°12'0 0.0
2017-Nov-11 04:30N 39°54' W 075°12'0 0.0
2017-Nov-11 04:00N 39°54' W 075°12'0 0.0
2017-Nov-11 03:31N 39°54' W 075°12'0 0.0
2017-Nov-11 03:00N 39°54' W 075°12'0 0.0
2017-Nov-11 02:31N 39°54' W 075°12'0 0.0
2017-Nov-11 02:01N 39°54' W 075°12'0 0.0
2017-Nov-11 01:31N 39°54' W 075°12'0 0.0
2017-Nov-11 01:01N 39°54' W 075°12'0 0.0
2017-Nov-11 00:31N 39°54' W 075°12'0 0.0
2017-Nov-11 00:00N 39°54' W 075°12'0 0.0
2017-Nov-10 23:30N 39°54' W 075°12'0 0.0
2017-Nov-10 23:01N 39°54' W 075°12'0 0.0
2017-Nov-10 22:30N 39°54' W 075°12'0 0.0
2017-Nov-10 22:00N 39°54' W 075°12'0 0.0
2017-Nov-10 21:31N 39°54' W 075°12'0 0.0
2017-Nov-10 21:00N 39°54' W 075°12'0 0.0
2017-Nov-10 20:30N 39°54' W 075°12'0 0.0
2017-Nov-10 20:01N 39°54' W 075°12'0 0.0
2017-Nov-10 19:30N 39°54' W 075°12'0 0.0
2017-Nov-10 19:01N 39°54' W 075°12'0 0.0
2017-Nov-10 18:31N 39°54' W 075°12'0 0.0
2017-Nov-10 18:00N 39°54' W 075°12'0 0.0
2017-Nov-10 17:31N 39°54' W 075°12'0 0.0
2017-Nov-10 17:00N 39°54' W 075°12'0 0.0
2017-Nov-10 16:31N 39°54' W 075°12'0 0.0
2017-Nov-10 16:01N 39°54' W 075°12'3 5.9
2017-Nov-10 15:31N 39°51' W 075°15'1 2.2
2017-Nov-10 15:01N 39°51' W 075°16'1 2.1
2017-Nov-10 14:31N 39°51' W 075°17'3 5.3
2017-Nov-10 14:01N 39°51' W 075°21'3 5.0
2017-Nov-10 13:30N 39°49' W 075°23'3 5.7
2017-Nov-10 13:01N 39°48' W 075°26'3 5.7
2017-Nov-10 12:31N 39°45' W 075°29'3 6.2
2017-Nov-10 12:01N 39°43' W 075°31'3 6.2
2017-Nov-10 11:31N 39°40' W 075°32'3 6.5
2017-Nov-10 11:00N 39°37' W 075°35'3 6.7
2017-Nov-10 10:30N 39°34' W 075°33'2 3.5
2017-Nov-10 10:00N 39°35' W 075°35'1 1.2
2017-Nov-10 09:30N 39°35' W 075°36'0 0.0
2017-Nov-10 09:01N 39°35' W 075°36'0 0.0
2017-Nov-10 08:31N 39°35' W 075°36'0 0.0
2017-Nov-10 08:00N 39°35' W 075°36'0 0.0
2017-Nov-10 07:31N 39°35' W 075°36'0 0.0
2017-Nov-10 07:00N 39°35' W 075°36'0 0.0
2017-Nov-10 06:31N 39°35' W 075°36'0 0.0
2017-Nov-10 06:00N 39°35' W 075°36'0 0.0
2017-Nov-10 05:30N 39°35' W 075°36'0 0.0
2017-Nov-10 05:00N 39°35' W 075°36'0 0.0
2017-Nov-10 04:30N 39°35' W 075°36'0 0.0
2017-Nov-10 04:01N 39°35' W 075°36'0 0.0
2017-Nov-10 03:31N 39°35' W 075°36'0 0.0
2017-Nov-10 03:01N 39°35' W 075°36'0 0.0
2017-Nov-10 02:30N 39°35' W 075°36'0 0.0
2017-Nov-10 02:01N 39°35' W 075°36'0 0.0
2017-Nov-10 01:30N 39°35' W 075°36'0 0.0
2017-Nov-10 01:01N 39°35' W 075°36'0 0.0
2017-Nov-10 00:31N 39°35' W 075°36'0 0.0
2017-Nov-10 00:01N 39°35' W 075°36'0 0.0
2017-Nov-09 23:31N 39°35' W 075°36'0 0.0
2017-Nov-09 23:01N 39°35' W 075°36'0 0.0
2017-Nov-09 22:31N 39°35' W 075°36'0 0.0
2017-Nov-09 22:01N 39°35' W 075°36'0 0.0
2017-Nov-09 21:31N 39°35' W 075°36'0 0.0
2017-Nov-09 21:01N 39°35' W 075°36'0 0.0
2017-Nov-09 20:30N 39°35' W 075°36'0 0.0
2017-Nov-09 20:01N 39°35' W 075°36'0 0.1
2017-Nov-09 19:31N 39°35' W 075°36'0 0.9
2017-Nov-09 19:01N 39°35' W 075°35'1 2.5
2017-Nov-09 18:31N 39°35' W 075°34'3 5.3
2017-Nov-09 18:01N 39°38' W 075°34'4 7.1
2017-Nov-09 17:31N 39°41' W 075°31'4 7.7
2017-Nov-09 17:01N 39°44' W 075°30'4 8.5
2017-Nov-09 16:31N 39°48' W 075°26'5 9.8
2017-Nov-09 16:00N 39°50' W 075°21'5 9.8
2017-Nov-09 15:31N 39°51' W 075°15'3 6.6
2017-Nov-09 15:00N 39°54' W 075°12'0 0.3
2017-Nov-09 14:31N 39°54' W 075°12'0 0.1
2017-Nov-09 14:00N 39°54' W 075°12'0 0.0
2017-Nov-09 13:30N 39°54' W 075°12'0 0.0
2017-Nov-09 13:01N 39°54' W 075°12'0 0.0
2017-Nov-09 12:31N 39°54' W 075°12'0 0.0
2017-Nov-09 12:01N 39°54' W 075°12'0 0.0
2017-Nov-09 11:30N 39°54' W 075°12'0 0.0
2017-Nov-09 11:01N 39°54' W 075°12'0 0.0
2017-Nov-09 10:30N 39°54' W 075°12'0 0.0
2017-Nov-09 10:00N 39°54' W 075°12'0 0.0
2017-Nov-09 09:31N 39°54' W 075°12'0 0.0
2017-Nov-09 09:01N 39°54' W 075°12'0 0.0
2017-Nov-09 08:31N 39°54' W 075°12'0 0.0
2017-Nov-09 08:01N 39°54' W 075°12'0 0.0
2017-Nov-09 07:31N 39°54' W 075°12'0 0.0
2017-Nov-09 07:01N 39°54' W 075°12'0 0.0
2017-Nov-09 06:31N 39°54' W 075°12'0 0.0
2017-Nov-09 06:01N 39°54' W 075°12'0 0.0
2017-Nov-09 05:31N 39°54' W 075°12'0 0.0
2017-Nov-09 05:01N 39°54' W 075°12'0 0.0
2017-Nov-09 04:31N 39°54' W 075°12'0 0.0
2017-Nov-09 04:01N 39°54' W 075°12'0 0.0
2017-Nov-09 03:30N 39°54' W 075°12'0 0.0
2017-Nov-09 03:00N 39°54' W 075°12'0 0.0
2017-Nov-09 02:31N 39°54' W 075°12'0 0.0
2017-Nov-09 02:01N 39°54' W 075°12'0 0.0
2017-Nov-09 01:30N 39°54' W 075°12'0 0.0
2017-Nov-09 01:01N 39°54' W 075°12'0 0.0
2017-Nov-09 00:30N 39°54' W 075°12'0 0.1
2017-Nov-09 00:01N 39°54' W 075°12'0 0.1
2017-Nov-08 23:30N 39°54' W 075°12'0 0.0
2017-Nov-08 23:00N 39°54' W 075°12'0 0.2
2017-Nov-08 22:31N 39°54' W 075°12'0 0.0
2017-Nov-08 22:00N 39°54' W 075°12'0 0.0
2017-Nov-08 21:31N 39°54' W 075°12'0 0.0
2017-Nov-08 21:01N 39°54' W 075°12'0 0.0
2017-Nov-08 20:30N 39°54' W 075°12'0 0.0
2017-Nov-08 20:01N 39°54' W 075°12'  
Track history (hours):
 
Tides and Currents Weather Stations Pressure Air Temp Water Temp Dewpoint Dewpoint Depression Visibility Wind Speed Wind Dir Waves Ship Positions

Baltimore

Last reported at 2017-Nov-18 19:30 UTC. Time now 2017-Nov-18 19:34 UTC.
Position N 39°54' W 075°12'.

Length 33 m.

Type: Tug. MMSI: 338602000.

Date/timePositionNaut miles runAvg speedWind from/ knotsBaromVisibWave heightAir tempDewpointWater temp
2017-Nov-18 19:30N 39°54' W 075°12'0 0.0
2017-Nov-18 19:00N 39°54' W 075°12'0 0.0
2017-Nov-18 18:31N 39°54' W 075°12'0 0.0
2017-Nov-18 18:00N 39°54' W 075°12'0 0.0
2017-Nov-18 17:30N 39°54' W 075°12'0 0.1
2017-Nov-18 17:00N 39°54' W 075°12'0 0.1
2017-Nov-18 16:30N 39°54' W 075°12'0 0.1
2017-Nov-18 16:01N 39°54' W 075°12'0 0.0
2017-Nov-18 15:31N 39°54' W 075°12'0 0.0
2017-Nov-18 15:00N 39°54' W 075°12'0 0.0
2017-Nov-18 14:30N 39°54' W 075°12'0 0.0
2017-Nov-18 14:00N 39°54' W 075°12'0 0.0
2017-Nov-18 13:30N 39°54' W 075°12'0 0.0
2017-Nov-18 13:00N 39°54' W 075°12'0 0.0
2017-Nov-18 12:30N 39°54' W 075°12'0 0.0
2017-Nov-18 12:00N 39°54' W 075°12'0 0.0
2017-Nov-18 11:30N 39°54' W 075°12'0 0.0
2017-Nov-18 11:00N 39°54' W 075°12'0 0.0
2017-Nov-18 10:30N 39°54' W 075°12'0 0.0
2017-Nov-18 10:00N 39°54' W 075°12'0 0.0
2017-Nov-18 09:30N 39°54' W 075°12'0 0.0
2017-Nov-18 09:00N 39°54' W 075°12'0 0.0
2017-Nov-18 08:30N 39°54' W 075°12'0 0.0
2017-Nov-18 08:00N 39°54' W 075°12'0 0.0
2017-Nov-18 07:30N 39°54' W 075°12'0 0.0
2017-Nov-18 07:00N 39°54' W 075°12'0 0.0
2017-Nov-18 06:30N 39°54' W 075°12'0 0.0
2017-Nov-18 06:00N 39°54' W 075°12'0 0.0
2017-Nov-18 05:30N 39°54' W 075°12'0 0.0
2017-Nov-18 05:00N 39°54' W 075°12'0 0.0
2017-Nov-18 04:30N 39°54' W 075°12'0 0.0
2017-Nov-18 04:00N 39°54' W 075°12'0 0.0
2017-Nov-18 03:30N 39°54' W 075°12'0 0.0
2017-Nov-18 03:01N 39°54' W 075°12'0 0.0
2017-Nov-18 02:30N 39°54' W 075°12'0 0.0
2017-Nov-18 02:00N 39°54' W 075°12'0 0.0
2017-Nov-18 01:31N 39°54' W 075°12'0 0.0
2017-Nov-18 01:00N 39°54' W 075°12'0 0.0
2017-Nov-18 00:30N 39°54' W 075°12'0 0.0
2017-Nov-18 00:00N 39°54' W 075°12'0 0.0
2017-Nov-17 23:30N 39°54' W 075°12'1 1.3
2017-Nov-17 23:00N 39°53' W 075°12'0 0.0
2017-Nov-17 22:30N 39°53' W 075°12'0 0.0
2017-Nov-17 22:00N 39°53' W 075°12'0 0.0
2017-Nov-17 21:30N 39°53' W 075°12'1 1.9
2017-Nov-17 21:01N 39°53' W 075°12'3 6.9
2017-Nov-17 20:30N 39°51' W 075°16'0 0.2
2017-Nov-17 20:01N 39°51' W 075°16'2 4.7
2017-Nov-17 19:31N 39°52' W 075°13'0 0.2
2017-Nov-17 19:01N 39°52' W 075°13'0 0.0
2017-Nov-17 18:30N 39°52' W 075°13'0 0.1
2017-Nov-17 18:01N 39°52' W 075°13'0 0.1
2017-Nov-17 17:30N 39°52' W 075°13'1 1.1
2017-Nov-17 17:00N 39°52' W 075°14'3 5.9
2017-Nov-17 16:30N 39°51' W 075°18'4 7.3
2017-Nov-17 16:00N 39°50' W 075°22'4 8.9
2017-Nov-17 15:30N 39°47' W 075°27'4 8.9
2017-Nov-17 15:00N 39°44' W 075°30'2 4.3
2017-Nov-17 14:30N 39°42' W 075°31'3 6.5
2017-Nov-17 14:00N 39°39' W 075°33'4 7.4
2017-Nov-17 13:30N 39°35' W 075°34'4 8.6
2017-Nov-17 13:00N 39°31' W 075°33'4 8.2
2017-Nov-17 12:30N 39°27' W 075°33'4 8.4
2017-Nov-17 12:00N 39°24' W 075°29'3 6.6
2017-Nov-17 11:30N 39°21' W 075°26'3 6.5
2017-Nov-17 11:00N 39°19' W 075°24'4 7.7
2017-Nov-17 10:30N 39°16' W 075°20'4 7.3
2017-Nov-17 10:00N 39°13' W 075°17'4 7.7
2017-Nov-17 09:30N 39°10' W 075°15'4 7.3
2017-Nov-17 09:00N 39°07' W 075°12'3 6.4
2017-Nov-17 08:30N 39°04' W 075°10'4 6.5
2017-Nov-17 07:50N 38°60' W 075°09'52 5.5
2017-Nov-16 22:21N 39°27' W 074°11'3 7.9
2017-Nov-16 21:59N 39°29' W 074°09'4 7.9
2017-Nov-16 21:30N 39°32' W 074°06'4 8.1
2017-Nov-16 21:00N 39°36' W 074°04'4 8.1
2017-Nov-16 20:29N 39°40' W 074°02'4 8.1
2017-Nov-16 20:00N 39°43' W 073°60'4 8.1
2017-Nov-16 19:30N 39°47' W 073°58'4 8.3
2017-Nov-16 19:00N 39°51' W 073°58'32 8.5
2017-Nov-16 15:17N 40°23' W 073°54'4 8.2
2017-Nov-16 14:50N 40°27' W 073°54'7 8.7
2017-Nov-16 14:00N 40°32' W 074°01'4 8.7
2017-Nov-16 13:30N 40°36' W 074°03'2 4.4
2017-Nov-16 13:00N 40°38' W 074°03'2 3.3
2017-Nov-16 12:30N 40°40' W 074°03'3 6.0
2017-Nov-16 12:00N 40°42' W 074°00'2 4.5
2017-Nov-16 11:30N 40°43' W 073°58'3 5.1
2017-Nov-16 11:00N 40°46' W 073°57'2 3.2
2017-Nov-16 10:28N 40°47' W 073°56'2 3.7
2017-Nov-16 10:00N 40°48' W 073°54'2 4.7
2017-Nov-16 09:29N 40°48' W 073°51'3 5.1
2017-Nov-16 08:59N 40°48' W 073°48'6 0.3
2017-Nov-15 12:09N 40°53' W 073°43'1 7.0
2017-Nov-15 11:57N 40°52' W 073°44'3 7.0
2017-Nov-15 11:29N 40°50' W 073°47'3 5.3
2017-Nov-15 11:00N 40°48' W 073°50'4 7.4
2017-Nov-15 10:30N 40°48' W 073°54'0 0.1
2017-Nov-15 09:13N 40°48' W 073°54'0 0.0
2017-Nov-15 08:38N 40°48' W 073°54'0 0.0
2017-Nov-15 08:30N 40°48' W 073°54'0 0.0
2017-Nov-15 07:58N 40°48' W 073°54'0 0.0
2017-Nov-15 07:29N 40°48' W 073°54'0 0.0
2017-Nov-15 06:59N 40°48' W 073°54'0 0.0
2017-Nov-15 06:31N 40°48' W 073°54'0 0.0
2017-Nov-15 06:00N 40°48' W 073°54'0 0.0
2017-Nov-15 05:30N 40°48' W 073°54'0 0.0
2017-Nov-15 05:01N 40°48' W 073°54'0 0.0
2017-Nov-15 04:30N 40°48' W 073°54'0 0.0
2017-Nov-15 04:00N 40°48' W 073°54'0 0.0
2017-Nov-15 03:29N 40°48' W 073°54'0 0.0
2017-Nov-15 02:59N 40°48' W 073°54'0 0.0
2017-Nov-15 02:30N 40°48' W 073°54'0 0.0
2017-Nov-15 02:00N 40°48' W 073°54'0 0.0
2017-Nov-15 00:59N 40°48' W 073°54'0 0.2
2017-Nov-15 00:31N 40°48' W 073°54'2 4.6
2017-Nov-14 23:59N 40°46' W 073°57'2 4.7
2017-Nov-14 23:30N 40°44' W 073°58'2 4.0
2017-Nov-14 23:01N 40°42' W 073°59'3 5.0
2017-Nov-14 22:30N 40°41' W 074°01'2 4.9
2017-Nov-14 22:00N 40°38' W 074°02'2 4.7
2017-Nov-14 21:30N 40°36' W 074°02'2 3.8
2017-Nov-14 21:00N 40°34' W 074°02'2 3.7
2017-Nov-14 20:30N 40°32' W 074°01'3 5.6
2017-Nov-14 20:01N 40°31' W 073°59'3 6.5
2017-Nov-14 19:30N 40°29' W 073°55'43 5.1
2017-Nov-14 11:03N 39°46' W 073°58'2 5.0
2017-Nov-14 10:34N 39°44' W 073°59'0 5.0
2017-Nov-14 10:30N 39°43' W 073°60'3 5.0
2017-Nov-14 10:00N 39°41' W 074°01'2 5.0
2017-Nov-14 09:31N 39°39' W 074°02'3 5.0
2017-Nov-14 09:00N 39°36' W 074°03'2 5.1
2017-Nov-14 08:31N 39°34' W 074°05'7 5.1
2017-Nov-14 07:08N 39°28' W 074°09'25 5.0
2017-Nov-14 02:05N 39°08' W 074°29'7 5.1
2017-Nov-14 00:42N 39°03' W 074°35'58 2.6
2017-Nov-13 02:00N 39°54' W 075°12'0 0.0
2017-Nov-13 01:31N 39°54' W 075°12'0 0.0
2017-Nov-13 01:01N 39°54' W 075°12'0 0.0
2017-Nov-13 00:30N 39°54' W 075°12'0 0.0
2017-Nov-13 00:00N 39°54' W 075°12'0 0.0
2017-Nov-12 23:31N 39°54' W 075°12'0 0.0
2017-Nov-12 23:01N 39°54' W 075°12'0 0.0
2017-Nov-12 22:30N 39°54' W 075°12'0 0.0
2017-Nov-12 22:01N 39°54' W 075°12'0 0.0
2017-Nov-12 21:31N 39°54' W 075°12'0 0.0
2017-Nov-12 21:01N 39°54' W 075°12'0 0.0
2017-Nov-12 20:31N 39°54' W 075°12'0 0.0
2017-Nov-12 20:01N 39°54' W 075°12'0 0.0
2017-Nov-12 19:30N 39°54' W 075°12'0 0.0
2017-Nov-12 19:00N 39°54' W 075°12'0 0.0
2017-Nov-12 18:31N 39°54' W 075°12'0 0.0
2017-Nov-12 18:01N 39°54' W 075°12'0 0.0
2017-Nov-12 17:31N 39°54' W 075°12'0 0.0
2017-Nov-12 17:01N 39°54' W 075°12'0 0.0
2017-Nov-12 16:30N 39°54' W 075°12'0 0.0
2017-Nov-12 16:01N 39°54' W 075°12'0 0.0
2017-Nov-12 15:31N 39°54' W 075°12'0 0.0
2017-Nov-12 15:00N 39°54' W 075°12'0 0.1
2017-Nov-12 14:30N 39°54' W 075°12'0 0.0
2017-Nov-12 14:01N 39°54' W 075°12'0 0.0
2017-Nov-12 13:30N 39°54' W 075°12'0 0.0
2017-Nov-12 13:01N 39°54' W 075°12'0 0.0
2017-Nov-12 12:31N 39°54' W 075°12'0 0.0
2017-Nov-12 12:01N 39°54' W 075°12'0 0.0
2017-Nov-12 11:30N 39°54' W 075°12'0 0.0
2017-Nov-12 11:00N 39°54' W 075°12'0 0.0
2017-Nov-12 10:31N 39°54' W 075°12'0 0.0
2017-Nov-12 10:00N 39°54' W 075°12'0 0.0
2017-Nov-12 09:30N 39°54' W 075°12'0 0.0
2017-Nov-12 09:01N 39°54' W 075°12'0 0.0
2017-Nov-12 08:31N 39°54' W 075°12'0 0.0
2017-Nov-12 08:01N 39°54' W 075°12'0 0.0
2017-Nov-12 07:31N 39°54' W 075°12'0 0.0
2017-Nov-12 07:01N 39°54' W 075°12'0 0.0
2017-Nov-12 06:30N 39°54' W 075°12'0 0.0
2017-Nov-12 06:00N 39°54' W 075°12'0 0.0
2017-Nov-12 05:31N 39°54' W 075°12'0 0.0
2017-Nov-12 05:01N 39°54' W 075°12'0 0.0
2017-Nov-12 04:30N 39°54' W 075°12'0 0.0
2017-Nov-12 04:01N 39°54' W 075°12'0 0.0
2017-Nov-12 03:31N 39°54' W 075°12'0 0.0
2017-Nov-12 03:00N 39°54' W 075°12'0 0.0
2017-Nov-12 02:30N 39°54' W 075°12'0 0.0
2017-Nov-12 02:01N 39°54' W 075°12'0 0.0
2017-Nov-12 01:31N 39°54' W 075°12'0 0.0
2017-Nov-12 01:01N 39°54' W 075°12'0 0.0
2017-Nov-12 00:30N 39°54' W 075°12'0 0.0
2017-Nov-12 00:01N 39°54' W 075°12'0 0.0
2017-Nov-11 23:31N 39°54' W 075°12'0 0.0
2017-Nov-11 23:01N 39°54' W 075°12'0 0.0
2017-Nov-11 22:30N 39°54' W 075°12'0 0.0
2017-Nov-11 22:00N 39°54' W 075°12'0 0.0
2017-Nov-11 21:31N 39°54' W 075°12'0 0.0
2017-Nov-11 21:01N 39°54' W 075°12'0 0.0
2017-Nov-11 20:30N 39°54' W 075°12'0 0.0
2017-Nov-11 20:00N 39°54' W 075°12'0 0.0
2017-Nov-11 19:30N 39°54' W 075°12'0 0.0
2017-Nov-11 19:01N 39°54' W 075°12'0 0.0
2017-Nov-11 18:30N 39°54' W 075°12'0 0.0
2017-Nov-11 18:00N 39°54' W 075°12'0 0.0
2017-Nov-11 17:31N 39°54' W 075°12'0 0.0
2017-Nov-11 17:00N 39°54' W 075°12'0 0.0
2017-Nov-11 16:30N 39°54' W 075°12'0 0.0
2017-Nov-11 16:00N 39°54' W 075°12'0 0.0
2017-Nov-11 15:31N 39°54' W 075°12'0 0.0
2017-Nov-11 15:00N 39°54' W 075°12'0 0.0
2017-Nov-11 14:30N 39°54' W 075°12'0 0.0
2017-Nov-11 14:01N 39°54' W 075°12'0 0.0
2017-Nov-11 13:30N 39°54' W 075°12'0 0.0
2017-Nov-11 13:00N 39°54' W 075°12'0 0.0
2017-Nov-11 12:31N 39°54' W 075°12'0 0.0
2017-Nov-11 12:00N 39°54' W 075°12'0 0.0
2017-Nov-11 11:30N 39°54' W 075°12'0 0.0
2017-Nov-11 11:00N 39°54' W 075°12'0 0.0
2017-Nov-11 10:30N 39°54' W 075°12'0 0.0
2017-Nov-11 10:01N 39°54' W 075°12'0 0.0
2017-Nov-11 09:30N 39°54' W 075°12'0 0.0
2017-Nov-11 09:01N 39°54' W 075°12'0 0.0
2017-Nov-11 08:30N 39°54' W 075°12'0 0.0
2017-Nov-11 08:00N 39°54' W 075°12'0 0.0
2017-Nov-11 07:31N 39°54' W 075°12'0 0.0
2017-Nov-11 07:01N 39°54' W 075°12'0 0.0
2017-Nov-11 06:31N 39°54' W 075°12'0 0.0
2017-Nov-11 06:00N 39°54' W 075°12'0 0.0
2017-Nov-11 05:30N 39°54' W 075°12'0 0.0
2017-Nov-11 05:00N 39°54' W 075°12'0 0.0
2017-Nov-11 04:30N 39°54' W 075°12'0 0.0
2017-Nov-11 04:00N 39°54' W 075°12'0 0.0
2017-Nov-11 03:31N 39°54' W 075°12'0 0.0
2017-Nov-11 03:00N 39°54' W 075°12'0 0.0
2017-Nov-11 02:31N 39°54' W 075°12'0 0.0
2017-Nov-11 02:01N 39°54' W 075°12'0 0.0
2017-Nov-11 01:31N 39°54' W 075°12'0 0.0
2017-Nov-11 01:01N 39°54' W 075°12'0 0.0
2017-Nov-11 00:31N 39°54' W 075°12'0 0.0
2017-Nov-11 00:00N 39°54' W 075°12'0 0.0
2017-Nov-10 23:30N 39°54' W 075°12'0 0.0
2017-Nov-10 23:01N 39°54' W 075°12'0 0.0
2017-Nov-10 22:30N 39°54' W 075°12'0 0.0
2017-Nov-10 22:00N 39°54' W 075°12'0 0.0
2017-Nov-10 21:31N 39°54' W 075°12'0 0.0
2017-Nov-10 21:00N 39°54' W 075°12'0 0.0
2017-Nov-10 20:30N 39°54' W 075°12'0 0.0
2017-Nov-10 20:01N 39°54' W 075°12'0 0.0
2017-Nov-10 19:30N 39°54' W 075°12'0 0.0
2017-Nov-10 19:01N 39°54' W 075°12'0 0.0
2017-Nov-10 18:31N 39°54' W 075°12'0 0.0
2017-Nov-10 18:00N 39°54' W 075°12'0 0.0
2017-Nov-10 17:31N 39°54' W 075°12'0 0.0
2017-Nov-10 17:00N 39°54' W 075°12'0 0.0
2017-Nov-10 16:31N 39°54' W 075°12'0 0.0
2017-Nov-10 16:01N 39°54' W 075°12'3 5.9
2017-Nov-10 15:31N 39°51' W 075°15'1 2.2
2017-Nov-10 15:01N 39°51' W 075°16'1 2.1
2017-Nov-10 14:31N 39°51' W 075°17'3 5.3
2017-Nov-10 14:01N 39°51' W 075°21'3 5.0
2017-Nov-10 13:30N 39°49' W 075°23'3 5.7
2017-Nov-10 13:01N 39°48' W 075°26'3 5.7
2017-Nov-10 12:31N 39°45' W 075°29'3 6.2
2017-Nov-10 12:01N 39°43' W 075°31'3 6.2
2017-Nov-10 11:31N 39°40' W 075°32'3 6.5
2017-Nov-10 11:00N 39°37' W 075°35'3 6.7
2017-Nov-10 10:30N 39°34' W 075°33'2 3.5
2017-Nov-10 10:00N 39°35' W 075°35'1 1.2
2017-Nov-10 09:30N 39°35' W 075°36'0 0.0
2017-Nov-10 09:01N 39°35' W 075°36'0 0.0
2017-Nov-10 08:31N 39°35' W 075°36'0 0.0
2017-Nov-10 08:00N 39°35' W 075°36'0 0.0
2017-Nov-10 07:31N 39°35' W 075°36'0 0.0
2017-Nov-10 07:00N 39°35' W 075°36'0 0.0
2017-Nov-10 06:31N 39°35' W 075°36'0 0.0
2017-Nov-10 06:00N 39°35' W 075°36'0 0.0
2017-Nov-10 05:30N 39°35' W 075°36'0 0.0
2017-Nov-10 05:00N 39°35' W 075°36'0 0.0
2017-Nov-10 04:30N 39°35' W 075°36'0 0.0
2017-Nov-10 04:01N 39°35' W 075°36'0 0.0
2017-Nov-10 03:31N 39°35' W 075°36'0 0.0
2017-Nov-10 03:01N 39°35' W 075°36'0 0.0
2017-Nov-10 02:30N 39°35' W 075°36'0 0.0
2017-Nov-10 02:01N 39°35' W 075°36'0 0.0
2017-Nov-10 01:30N 39°35' W 075°36'0 0.0
2017-Nov-10 01:01N 39°35' W 075°36'0 0.0
2017-Nov-10 00:31N 39°35' W 075°36'0 0.0
2017-Nov-10 00:01N 39°35' W 075°36'0 0.0
2017-Nov-09 23:31N 39°35' W 075°36'0 0.0
2017-Nov-09 23:01N 39°35' W 075°36'0 0.0
2017-Nov-09 22:31N 39°35' W 075°36'0 0.0
2017-Nov-09 22:01N 39°35' W 075°36'0 0.0
2017-Nov-09 21:31N 39°35' W 075°36'0 0.0
2017-Nov-09 21:01N 39°35' W 075°36'0 0.0
2017-Nov-09 20:30N 39°35' W 075°36'0 0.0
2017-Nov-09 20:01N 39°35' W 075°36'0 0.1
2017-Nov-09 19:31N 39°35' W 075°36'0 0.9
2017-Nov-09 19:01N 39°35' W 075°35'1 2.5
2017-Nov-09 18:31N 39°35' W 075°34'3 5.3
2017-Nov-09 18:01N 39°38' W 075°34'4 7.1
2017-Nov-09 17:31N 39°41' W 075°31'4 7.7
2017-Nov-09 17:01N 39°44' W 075°30'4 8.5
2017-Nov-09 16:31N 39°48' W 075°26'5 9.8
2017-Nov-09 16:00N 39°50' W 075°21'5 9.8
2017-Nov-09 15:31N 39°51' W 075°15'3 6.6
2017-Nov-09 15:00N 39°54' W 075°12'0 0.3
2017-Nov-09 14:31N 39°54' W 075°12'0 0.1
2017-Nov-09 14:00N 39°54' W 075°12'0 0.0
2017-Nov-09 13:30N 39°54' W 075°12'0 0.0
2017-Nov-09 13:01N 39°54' W 075°12'0 0.0
2017-Nov-09 12:31N 39°54' W 075°12'0 0.0
2017-Nov-09 12:01N 39°54' W 075°12'0 0.0
2017-Nov-09 11:30N 39°54' W 075°12'0 0.0
2017-Nov-09 11:01N 39°54' W 075°12'0 0.0
2017-Nov-09 10:30N 39°54' W 075°12'0 0.0
2017-Nov-09 10:00N 39°54' W 075°12'0 0.0
2017-Nov-09 09:31N 39°54' W 075°12'0 0.0
2017-Nov-09 09:01N 39°54' W 075°12'0 0.0
2017-Nov-09 08:31N 39°54' W 075°12'0 0.0
2017-Nov-09 08:01N 39°54' W 075°12'0 0.0
2017-Nov-09 07:31N 39°54' W 075°12'0 0.0
2017-Nov-09 07:01N 39°54' W 075°12'0 0.0
2017-Nov-09 06:31N 39°54' W 075°12'0 0.0
2017-Nov-09 06:01N 39°54' W 075°12'0 0.0
2017-Nov-09 05:31N 39°54' W 075°12'0 0.0
2017-Nov-09 05:01N 39°54' W 075°12'0 0.0
2017-Nov-09 04:31N 39°54' W 075°12'0 0.0
2017-Nov-09 04:01N 39°54' W 075°12'0 0.0
2017-Nov-09 03:30N 39°54' W 075°12'0 0.0
2017-Nov-09 03:00N 39°54' W 075°12'0 0.0
2017-Nov-09 02:31N 39°54' W 075°12'0 0.0
2017-Nov-09 02:01N 39°54' W 075°12'0 0.0
2017-Nov-09 01:30N 39°54' W 075°12'0 0.0
2017-Nov-09 01:01N 39°54' W 075°12'0 0.0
2017-Nov-09 00:30N 39°54' W 075°12'0 0.1
2017-Nov-09 00:01N 39°54' W 075°12'0 0.1
2017-Nov-08 23:30N 39°54' W 075°12'0 0.0
2017-Nov-08 23:00N 39°54' W 075°12'0 0.2
2017-Nov-08 22:31N 39°54' W 075°12'0 0.0
2017-Nov-08 22:00N 39°54' W 075°12'0 0.0
2017-Nov-08 21:31N 39°54' W 075°12'0 0.0
2017-Nov-08 21:01N 39°54' W 075°12'0 0.0
2017-Nov-08 20:30N 39°54' W 075°12'0 0.0
2017-Nov-08 20:01N 39°54' W 075°12'  

Dump ship's entire track history